sensor_id;sensor_type;location;lat;lon;timestamp;P1;durP1;ratioP1;P2;durP2;ratioP2
5819;SDS011;2936;47.348;9.640;2022-08-19T00:01:34;5.87;;;5.27;;
5819;SDS011;2936;47.348;9.640;2022-08-19T00:04:05;5.67;;;5.10;;
5819;SDS011;2936;47.348;9.640;2022-08-19T00:06:33;6.20;;;5.63;;
5819;SDS011;2936;47.348;9.640;2022-08-19T00:09:02;7.40;;;6.10;;
5819;SDS011;2936;47.348;9.640;2022-08-19T00:11:29;9.07;;;6.73;;
5819;SDS011;2936;47.348;9.640;2022-08-19T00:13:57;7.33;;;6.80;;
5819;SDS011;2936;47.348;9.640;2022-08-19T00:16:24;8.30;;;7.60;;
5819;SDS011;2936;47.348;9.640;2022-08-19T00:18:52;9.83;;;6.80;;
5819;SDS011;2936;47.348;9.640;2022-08-19T00:21:21;6.93;;;6.33;;
5819;SDS011;2936;47.348;9.640;2022-08-19T00:23:49;7.37;;;6.63;;
5819;SDS011;2936;47.348;9.640;2022-08-19T00:26:16;11.43;;;6.13;;
5819;SDS011;2936;47.348;9.640;2022-08-19T00:28:43;9.40;;;7.07;;
5819;SDS011;2936;47.348;9.640;2022-08-19T00:31:11;7.93;;;7.23;;
5819;SDS011;2936;47.348;9.640;2022-08-19T00:33:38;11.47;;;6.80;;
5819;SDS011;2936;47.348;9.640;2022-08-19T00:36:06;7.43;;;6.77;;
5819;SDS011;2936;47.348;9.640;2022-08-19T00:38:36;8.40;;;7.70;;
5819;SDS011;2936;47.348;9.640;2022-08-19T00:41:08;8.53;;;7.70;;
5819;SDS011;2936;47.348;9.640;2022-08-19T00:43:35;13.00;;;8.40;;
5819;SDS011;2936;47.348;9.640;2022-08-19T00:46:04;9.30;;;8.40;;
5819;SDS011;2936;47.348;9.640;2022-08-19T00:48:31;14.80;;;10.23;;
5819;SDS011;2936;47.348;9.640;2022-08-19T00:50:59;11.73;;;10.10;;
5819;SDS011;2936;47.348;9.640;2022-08-19T00:53:27;14.60;;;10.17;;
5819;SDS011;2936;47.348;9.640;2022-08-19T00:55:58;11.40;;;10.30;;
5819;SDS011;2936;47.348;9.640;2022-08-19T00:58:27;24.60;;;11.13;;
5819;SDS011;2936;47.348;9.640;2022-08-19T01:00:56;21.50;;;16.90;;
5819;SDS011;2936;47.348;9.640;2022-08-19T01:03:23;25.60;;;17.50;;
5819;SDS011;2936;47.348;9.640;2022-08-19T01:05:51;22.97;;;16.87;;
5819;SDS011;2936;47.348;9.640;2022-08-19T01:08:19;24.73;;;18.90;;
5819;SDS011;2936;47.348;9.640;2022-08-19T01:10:47;29.77;;;20.97;;
5819;SDS011;2936;47.348;9.640;2022-08-19T01:13:16;32.20;;;21.07;;
5819;SDS011;2936;47.348;9.640;2022-08-19T01:15:48;29.63;;;20.97;;
5819;SDS011;2936;47.348;9.640;2022-08-19T01:18:17;35.00;;;22.50;;
5819;SDS011;2936;47.348;9.640;2022-08-19T01:20:44;31.73;;;20.03;;
5819;SDS011;2936;47.348;9.640;2022-08-19T01:23:13;29.70;;;21.23;;
5819;SDS011;2936;47.348;9.640;2022-08-19T01:25:42;34.67;;;21.87;;
5819;SDS011;2936;47.348;9.640;2022-08-19T01:28:14;28.30;;;21.53;;
5819;SDS011;2936;47.348;9.640;2022-08-19T01:30:42;26.77;;;19.40;;
5819;SDS011;2936;47.348;9.640;2022-08-19T01:33:10;23.97;;;18.43;;
5819;SDS011;2936;47.348;9.640;2022-08-19T01:35:37;28.17;;;20.80;;
5819;SDS011;2936;47.348;9.640;2022-08-19T01:38:06;31.03;;;18.93;;
5819;SDS011;2936;47.348;9.640;2022-08-19T01:40:37;22.50;;;17.67;;
5819;SDS011;2936;47.348;9.640;2022-08-19T01:43:05;21.63;;;16.43;;
5819;SDS011;2936;47.348;9.640;2022-08-19T01:45:33;27.33;;;17.67;;
5819;SDS011;2936;47.348;9.640;2022-08-19T01:48:01;25.77;;;17.57;;
5819;SDS011;2936;47.348;9.640;2022-08-19T01:50:29;22.20;;;16.70;;
5819;SDS011;2936;47.348;9.640;2022-08-19T01:52:57;20.60;;;17.87;;
5819;SDS011;2936;47.348;9.640;2022-08-19T01:55:25;26.60;;;18.63;;
5819;SDS011;2936;47.348;9.640;2022-08-19T01:57:54;21.70;;;18.13;;
5819;SDS011;2936;47.348;9.640;2022-08-19T02:00:23;28.40;;;19.80;;
5819;SDS011;2936;47.348;9.640;2022-08-19T02:02:51;32.57;;;21.43;;
5819;SDS011;2936;47.348;9.640;2022-08-19T02:05:18;27.70;;;20.30;;
5819;SDS011;2936;47.348;9.640;2022-08-19T02:07:46;28.77;;;21.10;;
5819;SDS011;2936;47.348;9.640;2022-08-19T02:10:16;26.27;;;20.53;;
5819;SDS011;2936;47.348;9.640;2022-08-19T02:12:43;25.33;;;21.83;;
5819;SDS011;2936;47.348;9.640;2022-08-19T02:15:12;28.47;;;21.40;;
5819;SDS011;2936;47.348;9.640;2022-08-19T02:17:40;29.00;;;22.00;;
5819;SDS011;2936;47.348;9.640;2022-08-19T02:20:07;25.23;;;20.10;;
5819;SDS011;2936;47.348;9.640;2022-08-19T02:22:35;27.10;;;20.67;;
5819;SDS011;2936;47.348;9.640;2022-08-19T02:25:04;24.30;;;19.80;;
5819;SDS011;2936;47.348;9.640;2022-08-19T02:27:31;26.23;;;19.90;;
5819;SDS011;2936;47.348;9.640;2022-08-19T02:29:59;25.73;;;20.90;;
5819;SDS011;2936;47.348;9.640;2022-08-19T02:32:28;28.00;;;21.57;;
5819;SDS011;2936;47.348;9.640;2022-08-19T02:34:56;26.70;;;21.00;;
5819;SDS011;2936;47.348;9.640;2022-08-19T02:37:23;28.40;;;20.57;;
5819;SDS011;2936;47.348;9.640;2022-08-19T02:40:08;25.20;;;18.77;;
5819;SDS011;2936;47.348;9.640;2022-08-19T02:42:36;25.60;;;20.73;;
5819;SDS011;2936;47.348;9.640;2022-08-19T02:45:03;21.90;;;18.37;;
5819;SDS011;2936;47.348;9.640;2022-08-19T02:47:32;27.33;;;18.93;;
5819;SDS011;2936;47.348;9.640;2022-08-19T02:50:00;24.93;;;20.57;;
5819;SDS011;2936;47.348;9.640;2022-08-19T02:52:27;22.90;;;18.20;;
5819;SDS011;2936;47.348;9.640;2022-08-19T02:54:55;27.33;;;19.87;;
5819;SDS011;2936;47.348;9.640;2022-08-19T02:57:22;27.40;;;19.90;;
5819;SDS011;2936;47.348;9.640;2022-08-19T02:59:50;23.67;;;19.97;;
5819;SDS011;2936;47.348;9.640;2022-08-19T03:02:17;25.10;;;19.07;;
5819;SDS011;2936;47.348;9.640;2022-08-19T03:04:46;22.40;;;17.63;;
5819;SDS011;2936;47.348;9.640;2022-08-19T03:07:14;22.67;;;15.97;;
5819;SDS011;2936;47.348;9.640;2022-08-19T03:09:42;22.07;;;15.90;;
5819;SDS011;2936;47.348;9.640;2022-08-19T03:12:09;19.70;;;15.70;;
5819;SDS011;2936;47.348;9.640;2022-08-19T03:14:37;16.33;;;13.50;;
5819;SDS011;2936;47.348;9.640;2022-08-19T03:17:04;17.03;;;15.00;;
5819;SDS011;2936;47.348;9.640;2022-08-19T03:19:33;16.20;;;14.23;;
5819;SDS011;2936;47.348;9.640;2022-08-19T03:22:01;15.83;;;14.13;;
5819;SDS011;2936;47.348;9.640;2022-08-19T03:24:29;16.27;;;13.90;;
5819;SDS011;2936;47.348;9.640;2022-08-19T03:26:57;20.67;;;14.33;;
5819;SDS011;2936;47.348;9.640;2022-08-19T03:29:25;18.97;;;15.20;;
5819;SDS011;2936;47.348;9.640;2022-08-19T03:31:53;21.50;;;16.20;;
5819;SDS011;2936;47.348;9.640;2022-08-19T03:34:21;23.20;;;17.30;;
5819;SDS011;2936;47.348;9.640;2022-08-19T03:36:51;21.07;;;17.00;;
5819;SDS011;2936;47.348;9.640;2022-08-19T03:39:20;22.10;;;18.63;;
5819;SDS011;2936;47.348;9.640;2022-08-19T03:41:50;19.63;;;16.00;;
5819;SDS011;2936;47.348;9.640;2022-08-19T03:44:20;20.80;;;17.43;;
5819;SDS011;2936;47.348;9.640;2022-08-19T03:46:49;22.70;;;18.80;;
5819;SDS011;2936;47.348;9.640;2022-08-19T03:49:17;22.40;;;17.90;;
5819;SDS011;2936;47.348;9.640;2022-08-19T03:51:47;21.73;;;17.77;;
5819;SDS011;2936;47.348;9.640;2022-08-19T03:54:16;25.30;;;18.60;;
5819;SDS011;2936;47.348;9.640;2022-08-19T03:56:45;29.50;;;19.40;;
5819;SDS011;2936;47.348;9.640;2022-08-19T03:59:14;31.10;;;20.63;;
5819;SDS011;2936;47.348;9.640;2022-08-19T04:01:42;27.47;;;19.70;;
5819;SDS011;2936;47.348;9.640;2022-08-19T04:04:11;29.70;;;21.43;;
5819;SDS011;2936;47.348;9.640;2022-08-19T04:06:38;29.50;;;23.20;;
5819;SDS011;2936;47.348;9.640;2022-08-19T04:09:07;30.50;;;23.03;;
5819;SDS011;2936;47.348;9.640;2022-08-19T04:11:36;33.63;;;23.20;;
5819;SDS011;2936;47.348;9.640;2022-08-19T04:14:08;35.13;;;21.90;;
5819;SDS011;2936;47.348;9.640;2022-08-19T04:16:36;27.60;;;21.63;;
5819;SDS011;2936;47.348;9.640;2022-08-19T04:19:04;26.93;;;21.40;;
5819;SDS011;2936;47.348;9.640;2022-08-19T04:21:32;32.20;;;21.80;;
5819;SDS011;2936;47.348;9.640;2022-08-19T04:23:59;29.60;;;22.53;;
5819;SDS011;2936;47.348;9.640;2022-08-19T04:26:28;27.23;;;20.70;;
5819;SDS011;2936;47.348;9.640;2022-08-19T04:28:57;22.30;;;18.97;;
5819;SDS011;2936;47.348;9.640;2022-08-19T04:31:27;27.13;;;19.03;;
5819;SDS011;2936;47.348;9.640;2022-08-19T04:33:57;21.37;;;17.67;;
5819;SDS011;2936;47.348;9.640;2022-08-19T04:36:26;22.00;;;19.30;;
5819;SDS011;2936;47.348;9.640;2022-08-19T04:38:55;27.40;;;19.00;;
5819;SDS011;2936;47.348;9.640;2022-08-19T04:41:23;23.40;;;19.63;;
5819;SDS011;2936;47.348;9.640;2022-08-19T04:44:08;23.50;;;18.60;;
5819;SDS011;2936;47.348;9.640;2022-08-19T04:46:37;22.33;;;16.97;;
5819;SDS011;2936;47.348;9.640;2022-08-19T04:49:05;23.33;;;17.97;;
5819;SDS011;2936;47.348;9.640;2022-08-19T04:51:33;19.57;;;15.60;;
5819;SDS011;2936;47.348;9.640;2022-08-19T04:54:02;21.07;;;17.30;;
5819;SDS011;2936;47.348;9.640;2022-08-19T04:56:30;17.33;;;15.43;;
5819;SDS011;2936;47.348;9.640;2022-08-19T04:58:57;21.20;;;16.10;;
5819;SDS011;2936;47.348;9.640;2022-08-19T05:01:28;21.13;;;17.80;;
5819;SDS011;2936;47.348;9.640;2022-08-19T05:03:58;23.53;;;18.20;;
5819;SDS011;2936;47.348;9.640;2022-08-19T05:06:26;20.83;;;16.57;;
5819;SDS011;2936;47.348;9.640;2022-08-19T05:08:57;20.17;;;17.07;;
5819;SDS011;2936;47.348;9.640;2022-08-19T05:11:26;21.47;;;18.40;;
5819;SDS011;2936;47.348;9.640;2022-08-19T05:13:54;21.23;;;17.20;;
5819;SDS011;2936;47.348;9.640;2022-08-19T05:16:22;24.97;;;19.63;;
5819;SDS011;2936;47.348;9.640;2022-08-19T05:18:51;24.80;;;19.57;;
5819;SDS011;2936;47.348;9.640;2022-08-19T05:21:38;28.57;;;22.27;;
5819;SDS011;2936;47.348;9.640;2022-08-19T05:24:23;26.80;;;22.17;;
5819;SDS011;2936;47.348;9.640;2022-08-19T05:26:53;37.30;;;23.43;;
5819;SDS011;2936;47.348;9.640;2022-08-19T05:29:24;26.53;;;18.60;;
5819;SDS011;2936;47.348;9.640;2022-08-19T05:31:52;28.00;;;19.80;;
5819;SDS011;2936;47.348;9.640;2022-08-19T05:34:20;25.20;;;17.97;;
5819;SDS011;2936;47.348;9.640;2022-08-19T05:36:51;23.00;;;15.70;;
5819;SDS011;2936;47.348;9.640;2022-08-19T05:39:22;20.83;;;16.83;;
5819;SDS011;2936;47.348;9.640;2022-08-19T05:41:51;21.67;;;16.87;;
5819;SDS011;2936;47.348;9.640;2022-08-19T05:44:19;17.93;;;15.33;;
5819;SDS011;2936;47.348;9.640;2022-08-19T05:46:48;20.47;;;16.43;;
5819;SDS011;2936;47.348;9.640;2022-08-19T05:49:18;25.83;;;16.13;;
5819;SDS011;2936;47.348;9.640;2022-08-19T05:51:46;27.97;;;17.77;;
5819;SDS011;2936;47.348;9.640;2022-08-19T05:54:15;30.90;;;18.43;;
5819;SDS011;2936;47.348;9.640;2022-08-19T05:56:42;30.03;;;17.23;;
5819;SDS011;2936;47.348;9.640;2022-08-19T05:59:13;29.30;;;19.53;;
5819;SDS011;2936;47.348;9.640;2022-08-19T06:01:41;26.73;;;19.97;;
5819;SDS011;2936;47.348;9.640;2022-08-19T06:04:09;25.43;;;19.17;;
5819;SDS011;2936;47.348;9.640;2022-08-19T06:06:36;29.67;;;19.50;;
5819;SDS011;2936;47.348;9.640;2022-08-19T06:09:04;24.53;;;18.63;;
5819;SDS011;2936;47.348;9.640;2022-08-19T06:11:35;25.70;;;19.17;;
5819;SDS011;2936;47.348;9.640;2022-08-19T06:14:03;22.70;;;18.30;;
5819;SDS011;2936;47.348;9.640;2022-08-19T06:16:33;22.00;;;17.70;;
5819;SDS011;2936;47.348;9.640;2022-08-19T06:19:01;25.30;;;17.77;;
5819;SDS011;2936;47.348;9.640;2022-08-19T06:21:29;21.30;;;17.17;;
5819;SDS011;2936;47.348;9.640;2022-08-19T06:23:56;24.27;;;17.50;;
5819;SDS011;2936;47.348;9.640;2022-08-19T06:26:24;31.53;;;19.20;;
5819;SDS011;2936;47.348;9.640;2022-08-19T06:28:54;26.43;;;18.50;;
5819;SDS011;2936;47.348;9.640;2022-08-19T06:31:22;21.90;;;17.93;;
5819;SDS011;2936;47.348;9.640;2022-08-19T06:33:50;24.40;;;18.87;;
5819;SDS011;2936;47.348;9.640;2022-08-19T06:36:18;22.77;;;19.07;;
5819;SDS011;2936;47.348;9.640;2022-08-19T06:38:46;23.03;;;18.90;;
5819;SDS011;2936;47.348;9.640;2022-08-19T06:41:13;26.60;;;19.37;;
5819;SDS011;2936;47.348;9.640;2022-08-19T06:43:41;25.77;;;20.30;;
5819;SDS011;2936;47.348;9.640;2022-08-19T06:46:11;25.03;;;20.23;;
5819;SDS011;2936;47.348;9.640;2022-08-19T06:48:39;26.50;;;20.60;;
5819;SDS011;2936;47.348;9.640;2022-08-19T06:51:06;37.30;;;22.07;;
5819;SDS011;2936;47.348;9.640;2022-08-19T06:53:34;27.73;;;19.60;;
5819;SDS011;2936;47.348;9.640;2022-08-19T06:56:01;24.17;;;17.70;;
5819;SDS011;2936;47.348;9.640;2022-08-19T06:58:29;20.53;;;16.93;;
5819;SDS011;2936;47.348;9.640;2022-08-19T07:00:58;20.10;;;16.00;;
5819;SDS011;2936;47.348;9.640;2022-08-19T07:03:30;19.97;;;16.43;;
5819;SDS011;2936;47.348;9.640;2022-08-19T07:05:58;21.30;;;17.80;;
5819;SDS011;2936;47.348;9.640;2022-08-19T07:08:29;18.60;;;16.33;;
5819;SDS011;2936;47.348;9.640;2022-08-19T07:10:57;18.27;;;15.13;;
5819;SDS011;2936;47.348;9.640;2022-08-19T07:13:25;21.37;;;17.67;;
5819;SDS011;2936;47.348;9.640;2022-08-19T07:15:52;20.53;;;15.73;;
5819;SDS011;2936;47.348;9.640;2022-08-19T07:18:20;23.60;;;17.50;;
5819;SDS011;2936;47.348;9.640;2022-08-19T07:20:49;25.43;;;17.27;;
5819;SDS011;2936;47.348;9.640;2022-08-19T07:23:16;21.90;;;16.10;;
5819;SDS011;2936;47.348;9.640;2022-08-19T07:25:44;21.50;;;16.47;;
5819;SDS011;2936;47.348;9.640;2022-08-19T07:28:11;23.27;;;17.77;;
5819;SDS011;2936;47.348;9.640;2022-08-19T07:30:38;24.77;;;18.50;;
5819;SDS011;2936;47.348;9.640;2022-08-19T07:33:06;23.43;;;17.60;;
5819;SDS011;2936;47.348;9.640;2022-08-19T07:35:33;24.07;;;17.27;;
5819;SDS011;2936;47.348;9.640;2022-08-19T07:38:02;20.23;;;17.30;;
5819;SDS011;2936;47.348;9.640;2022-08-19T07:40:30;24.10;;;17.60;;
5819;SDS011;2936;47.348;9.640;2022-08-19T07:42:57;22.90;;;17.30;;
5819;SDS011;2936;47.348;9.640;2022-08-19T07:45:25;26.87;;;19.10;;
5819;SDS011;2936;47.348;9.640;2022-08-19T07:47:53;31.53;;;19.03;;
5819;SDS011;2936;47.348;9.640;2022-08-19T07:50:21;27.40;;;18.47;;
5819;SDS011;2936;47.348;9.640;2022-08-19T07:52:48;23.80;;;17.43;;
5819;SDS011;2936;47.348;9.640;2022-08-19T07:55:19;25.87;;;19.30;;
5819;SDS011;2936;47.348;9.640;2022-08-19T07:57:47;25.40;;;18.37;;
5819;SDS011;2936;47.348;9.640;2022-08-19T08:00:15;21.77;;;16.87;;
5819;SDS011;2936;47.348;9.640;2022-08-19T08:02:42;18.50;;;15.70;;
5819;SDS011;2936;47.348;9.640;2022-08-19T08:05:10;19.97;;;15.90;;
5819;SDS011;2936;47.348;9.640;2022-08-19T08:07:55;17.87;;;14.50;;
5819;SDS011;2936;47.348;9.640;2022-08-19T08:10:40;20.87;;;14.67;;
5819;SDS011;2936;47.348;9.640;2022-08-19T08:13:07;18.20;;;13.83;;
5819;SDS011;2936;47.348;9.640;2022-08-19T08:15:35;17.63;;;14.30;;
5819;SDS011;2936;47.348;9.640;2022-08-19T08:18:03;18.17;;;15.93;;
5819;SDS011;2936;47.348;9.640;2022-08-19T08:20:32;23.53;;;17.30;;
5819;SDS011;2936;47.348;9.640;2022-08-19T08:22:59;23.97;;;17.10;;
5819;SDS011;2936;47.348;9.640;2022-08-19T08:25:45;18.73;;;14.47;;
5819;SDS011;2936;47.348;9.640;2022-08-19T08:28:14;19.80;;;14.00;;
5819;SDS011;2936;47.348;9.640;2022-08-19T08:30:41;20.90;;;14.70;;
5819;SDS011;2936;47.348;9.640;2022-08-19T08:33:11;21.63;;;15.40;;
5819;SDS011;2936;47.348;9.640;2022-08-19T08:35:38;22.40;;;15.87;;
5819;SDS011;2936;47.348;9.640;2022-08-19T08:38:06;19.20;;;15.80;;
5819;SDS011;2936;47.348;9.640;2022-08-19T08:40:39;20.17;;;14.60;;
5819;SDS011;2936;47.348;9.640;2022-08-19T08:43:09;19.40;;;14.27;;
5819;SDS011;2936;47.348;9.640;2022-08-19T08:45:41;19.40;;;14.77;;
5819;SDS011;2936;47.348;9.640;2022-08-19T08:48:11;16.90;;;13.33;;
5819;SDS011;2936;47.348;9.640;2022-08-19T08:50:42;17.07;;;15.00;;
5819;SDS011;2936;47.348;9.640;2022-08-19T08:53:10;21.37;;;15.73;;
5819;SDS011;2936;47.348;9.640;2022-08-19T08:55:37;16.00;;;14.30;;
5819;SDS011;2936;47.348;9.640;2022-08-19T08:58:09;19.57;;;14.77;;
5819;SDS011;2936;47.348;9.640;2022-08-19T09:00:39;21.60;;;15.97;;
5819;SDS011;2936;47.348;9.640;2022-08-19T09:03:12;24.60;;;18.57;;
5819;SDS011;2936;47.348;9.640;2022-08-19T09:05:44;30.67;;;19.03;;
5819;SDS011;2936;47.348;9.640;2022-08-19T09:08:17;26.07;;;18.53;;
5819;SDS011;2936;47.348;9.640;2022-08-19T09:10:46;30.33;;;20.17;;
5819;SDS011;2936;47.348;9.640;2022-08-19T09:13:20;24.87;;;19.03;;
5819;SDS011;2936;47.348;9.640;2022-08-19T09:15:51;25.03;;;18.57;;
5819;SDS011;2936;47.348;9.640;2022-08-19T09:18:20;26.80;;;18.80;;
5819;SDS011;2936;47.348;9.640;2022-08-19T09:20:47;28.47;;;20.70;;
5819;SDS011;2936;47.348;9.640;2022-08-19T09:23:15;36.47;;;23.40;;
5819;SDS011;2936;47.348;9.640;2022-08-19T09:25:43;25.60;;;20.30;;
5819;SDS011;2936;47.348;9.640;2022-08-19T09:28:10;28.73;;;21.13;;
5819;SDS011;2936;47.348;9.640;2022-08-19T09:30:40;31.13;;;20.93;;
5819;SDS011;2936;47.348;9.640;2022-08-19T09:33:07;28.10;;;19.77;;
5819;SDS011;2936;47.348;9.640;2022-08-19T09:35:35;23.03;;;18.17;;
5819;SDS011;2936;47.348;9.640;2022-08-19T09:38:02;25.23;;;18.40;;
5819;SDS011;2936;47.348;9.640;2022-08-19T09:40:30;23.00;;;18.97;;
5819;SDS011;2936;47.348;9.640;2022-08-19T09:42:58;26.30;;;17.80;;
5819;SDS011;2936;47.348;9.640;2022-08-19T09:45:27;23.80;;;17.93;;
5819;SDS011;2936;47.348;9.640;2022-08-19T09:47:57;24.30;;;17.13;;
5819;SDS011;2936;47.348;9.640;2022-08-19T09:50:25;24.67;;;19.43;;
5819;SDS011;2936;47.348;9.640;2022-08-19T09:52:52;22.87;;;17.07;;
5819;SDS011;2936;47.348;9.640;2022-08-19T09:55:20;18.00;;;14.53;;
5819;SDS011;2936;47.348;9.640;2022-08-19T09:57:47;19.73;;;12.47;;
5819;SDS011;2936;47.348;9.640;2022-08-19T10:00:14;17.73;;;13.40;;
5819;SDS011;2936;47.348;9.640;2022-08-19T10:02:42;16.73;;;13.37;;
5819;SDS011;2936;47.348;9.640;2022-08-19T10:05:11;16.80;;;12.77;;
5819;SDS011;2936;47.348;9.640;2022-08-19T10:07:56;15.53;;;12.60;;
5819;SDS011;2936;47.348;9.640;2022-08-19T10:10:26;19.97;;;13.67;;
5819;SDS011;2936;47.348;9.640;2022-08-19T10:12:53;17.60;;;14.60;;
5819;SDS011;2936;47.348;9.640;2022-08-19T10:15:21;23.77;;;15.33;;
5819;SDS011;2936;47.348;9.640;2022-08-19T10:17:48;22.50;;;14.63;;
5819;SDS011;2936;47.348;9.640;2022-08-19T10:20:17;21.87;;;16.70;;
5819;SDS011;2936;47.348;9.640;2022-08-19T10:22:45;18.87;;;15.77;;
5819;SDS011;2936;47.348;9.640;2022-08-19T10:25:12;18.13;;;13.10;;
5819;SDS011;2936;47.348;9.640;2022-08-19T10:27:41;15.90;;;13.23;;
5819;SDS011;2936;47.348;9.640;2022-08-19T10:30:09;16.27;;;12.53;;
5819;SDS011;2936;47.348;9.640;2022-08-19T10:32:36;15.47;;;11.90;;
5819;SDS011;2936;47.348;9.640;2022-08-19T10:35:05;17.17;;;12.33;;
5819;SDS011;2936;47.348;9.640;2022-08-19T10:37:37;15.77;;;12.47;;
5819;SDS011;2936;47.348;9.640;2022-08-19T10:40:05;15.13;;;12.93;;
5819;SDS011;2936;47.348;9.640;2022-08-19T10:42:33;12.80;;;10.47;;
5819;SDS011;2936;47.348;9.640;2022-08-19T10:45:01;11.60;;;10.40;;
5819;SDS011;2936;47.348;9.640;2022-08-19T10:47:29;10.53;;;9.43;;
5819;SDS011;2936;47.348;9.640;2022-08-19T10:49:56;9.73;;;8.00;;
5819;SDS011;2936;47.348;9.640;2022-08-19T10:52:43;7.23;;;6.53;;
5819;SDS011;2936;47.348;9.640;2022-08-19T10:55:11;7.97;;;7.27;;
5819;SDS011;2936;47.348;9.640;2022-08-19T10:57:56;8.03;;;5.83;;
5819;SDS011;2936;47.348;9.640;2022-08-19T11:00:24;8.27;;;5.33;;
5819;SDS011;2936;47.348;9.640;2022-08-19T11:02:51;10.83;;;5.37;;
5819;SDS011;2936;47.348;9.640;2022-08-19T11:05:19;4.97;;;4.67;;
5819;SDS011;2936;47.348;9.640;2022-08-19T11:07:48;6.77;;;5.47;;
5819;SDS011;2936;47.348;9.640;2022-08-19T11:10:16;5.80;;;5.23;;
5819;SDS011;2936;47.348;9.640;2022-08-19T11:12:44;4.80;;;4.40;;
5819;SDS011;2936;47.348;9.640;2022-08-19T11:15:12;6.80;;;3.70;;
5819;SDS011;2936;47.348;9.640;2022-08-19T11:17:40;8.53;;;3.60;;
5819;SDS011;2936;47.348;9.640;2022-08-19T11:20:09;3.50;;;3.40;;
5819;SDS011;2936;47.348;9.640;2022-08-19T11:22:37;3.73;;;2.90;;
5819;SDS011;2936;47.348;9.640;2022-08-19T11:25:07;3.17;;;2.97;;
5819;SDS011;2936;47.348;9.640;2022-08-19T11:27:37;4.80;;;3.37;;
5819;SDS011;2936;47.348;9.640;2022-08-19T11:30:05;5.63;;;3.27;;
5819;SDS011;2936;47.348;9.640;2022-08-19T11:32:33;6.43;;;3.63;;
5819;SDS011;2936;47.348;9.640;2022-08-19T11:35:00;5.17;;;4.73;;
5819;SDS011;2936;47.348;9.640;2022-08-19T11:37:28;4.93;;;4.60;;
5819;SDS011;2936;47.348;9.640;2022-08-19T11:39:56;6.30;;;4.90;;
5819;SDS011;2936;47.348;9.640;2022-08-19T11:42:24;4.40;;;4.10;;
5819;SDS011;2936;47.348;9.640;2022-08-19T11:45:09;5.67;;;3.50;;
5819;SDS011;2936;47.348;9.640;2022-08-19T11:47:38;3.17;;;2.97;;
5819;SDS011;2936;47.348;9.640;2022-08-19T11:50:06;3.87;;;3.60;;
5819;SDS011;2936;47.348;9.640;2022-08-19T11:52:34;3.00;;;2.80;;
5819;SDS011;2936;47.348;9.640;2022-08-19T11:55:02;11.53;;;2.77;;
5819;SDS011;2936;47.348;9.640;2022-08-19T11:57:31;2.63;;;2.43;;
5819;SDS011;2936;47.348;9.640;2022-08-19T11:59:59;2.70;;;2.50;;
5819;SDS011;2936;47.348;9.640;2022-08-19T12:02:26;2.97;;;2.77;;
5819;SDS011;2936;47.348;9.640;2022-08-19T12:04:54;5.90;;;3.40;;
5819;SDS011;2936;47.348;9.640;2022-08-19T12:07:21;2.57;;;2.47;;
5819;SDS011;2936;47.348;9.640;2022-08-19T12:09:49;3.07;;;2.87;;
5819;SDS011;2936;47.348;9.640;2022-08-19T12:12:17;3.50;;;2.80;;
5819;SDS011;2936;47.348;9.640;2022-08-19T12:14:46;3.73;;;3.43;;
5819;SDS011;2936;47.348;9.640;2022-08-19T12:17:15;6.20;;;3.30;;
5819;SDS011;2936;47.348;9.640;2022-08-19T12:19:44;5.00;;;3.43;;
5819;SDS011;2936;47.348;9.640;2022-08-19T12:22:11;3.40;;;3.20;;
5819;SDS011;2936;47.348;9.640;2022-08-19T12:24:39;2.60;;;2.40;;
5819;SDS011;2936;47.348;9.640;2022-08-19T12:27:06;2.53;;;2.23;;
5819;SDS011;2936;47.348;9.640;2022-08-19T12:29:33;2.10;;;2.00;;
5819;SDS011;2936;47.348;9.640;2022-08-19T12:32:03;2.03;;;1.93;;
5819;SDS011;2936;47.348;9.640;2022-08-19T12:34:30;2.00;;;1.90;;
5819;SDS011;2936;47.348;9.640;2022-08-19T12:37:00;2.53;;;2.40;;
5819;SDS011;2936;47.348;9.640;2022-08-19T12:39:28;2.30;;;2.10;;
5819;SDS011;2936;47.348;9.640;2022-08-19T12:41:56;2.23;;;2.10;;
5819;SDS011;2936;47.348;9.640;2022-08-19T12:44:24;4.33;;;2.50;;
5819;SDS011;2936;47.348;9.640;2022-08-19T12:46:51;4.97;;;2.93;;
5819;SDS011;2936;47.348;9.640;2022-08-19T12:49:20;2.93;;;2.27;;
5819;SDS011;2936;47.348;9.640;2022-08-19T12:51:47;2.30;;;1.90;;
5819;SDS011;2936;47.348;9.640;2022-08-19T12:54:15;6.40;;;2.30;;
5819;SDS011;2936;47.348;9.640;2022-08-19T12:56:42;2.10;;;2.00;;
5819;SDS011;2936;47.348;9.640;2022-08-19T12:59:10;2.63;;;2.00;;
5819;SDS011;2936;47.348;9.640;2022-08-19T13:01:37;2.53;;;1.73;;
5819;SDS011;2936;47.348;9.640;2022-08-19T13:04:06;1.90;;;1.80;;
5819;SDS011;2936;47.348;9.640;2022-08-19T13:06:35;2.23;;;1.80;;
5819;SDS011;2936;47.348;9.640;2022-08-19T13:09:02;2.53;;;1.70;;
5819;SDS011;2936;47.348;9.640;2022-08-19T13:11:30;2.10;;;2.00;;
5819;SDS011;2936;47.348;9.640;2022-08-19T13:13:57;2.47;;;2.33;;
5819;SDS011;2936;47.348;9.640;2022-08-19T13:16:25;2.30;;;2.20;;
5819;SDS011;2936;47.348;9.640;2022-08-19T13:18:53;3.30;;;2.60;;
5819;SDS011;2936;47.348;9.640;2022-08-19T13:21:22;2.90;;;2.70;;
5819;SDS011;2936;47.348;9.640;2022-08-19T13:23:59;2.23;;;2.13;;
5819;SDS011;2936;47.348;9.640;2022-08-19T13:26:27;3.83;;;2.80;;
5819;SDS011;2936;47.348;9.640;2022-08-19T13:28:54;1.97;;;1.87;;
5819;SDS011;2936;47.348;9.640;2022-08-19T13:31:40;2.00;;;1.90;;
5819;SDS011;2936;47.348;9.640;2022-08-19T13:34:26;2.80;;;2.60;;
5819;SDS011;2936;47.348;9.640;2022-08-19T13:36:54;2.93;;;2.57;;
5819;SDS011;2936;47.348;9.640;2022-08-19T13:39:23;3.13;;;2.73;;
5819;SDS011;2936;47.348;9.640;2022-08-19T13:41:51;5.30;;;3.27;;
5819;SDS011;2936;47.348;9.640;2022-08-19T13:44:18;2.83;;;2.60;;
5819;SDS011;2936;47.348;9.640;2022-08-19T13:46:46;2.30;;;2.20;;
5819;SDS011;2936;47.348;9.640;2022-08-19T13:49:15;3.93;;;2.40;;
5819;SDS011;2936;47.348;9.640;2022-08-19T13:51:43;3.97;;;2.63;;
5819;SDS011;2936;47.348;9.640;2022-08-19T13:54:11;3.63;;;3.33;;
5819;SDS011;2936;47.348;9.640;2022-08-19T13:56:44;3.83;;;3.53;;
5819;SDS011;2936;47.348;9.640;2022-08-19T13:59:11;3.50;;;3.23;;
5819;SDS011;2936;47.348;9.640;2022-08-19T14:01:39;3.70;;;3.40;;
5819;SDS011;2936;47.348;9.640;2022-08-19T14:04:07;3.53;;;3.23;;
5819;SDS011;2936;47.348;9.640;2022-08-19T14:06:34;4.70;;;3.73;;
5819;SDS011;2936;47.348;9.640;2022-08-19T14:09:02;2.80;;;2.60;;
5819;SDS011;2936;47.348;9.640;2022-08-19T14:11:30;4.03;;;3.27;;
5819;SDS011;2936;47.348;9.640;2022-08-19T14:13:59;3.40;;;3.20;;
5819;SDS011;2936;47.348;9.640;2022-08-19T14:16:27;3.53;;;3.23;;
5819;SDS011;2936;47.348;9.640;2022-08-19T14:18:55;3.67;;;3.47;;
5819;SDS011;2936;47.348;9.640;2022-08-19T14:21:23;3.70;;;3.40;;
5819;SDS011;2936;47.348;9.640;2022-08-19T14:23:56;4.80;;;4.40;;
5819;SDS011;2936;47.348;9.640;2022-08-19T14:26:23;4.53;;;4.13;;
5819;SDS011;2936;47.348;9.640;2022-08-19T14:28:51;3.90;;;3.60;;
5819;SDS011;2936;47.348;9.640;2022-08-19T14:31:20;3.57;;;3.37;;
5819;SDS011;2936;47.348;9.640;2022-08-19T14:33:49;3.80;;;3.60;;
5819;SDS011;2936;47.348;9.640;2022-08-19T14:36:17;3.60;;;3.30;;
5819;SDS011;2936;47.348;9.640;2022-08-19T14:38:45;3.33;;;3.03;;
5819;SDS011;2936;47.348;9.640;2022-08-19T14:41:14;3.60;;;3.37;;
5819;SDS011;2936;47.348;9.640;2022-08-19T14:43:42;3.90;;;3.60;;
5819;SDS011;2936;47.348;9.640;2022-08-19T14:46:11;3.50;;;3.30;;
5819;SDS011;2936;47.348;9.640;2022-08-19T14:48:42;3.90;;;3.60;;
5819;SDS011;2936;47.348;9.640;2022-08-19T14:51:09;3.60;;;3.40;;
5819;SDS011;2936;47.348;9.640;2022-08-19T14:53:37;3.70;;;3.40;;
5819;SDS011;2936;47.348;9.640;2022-08-19T14:56:07;3.73;;;3.30;;
5819;SDS011;2936;47.348;9.640;2022-08-19T14:58:35;3.70;;;3.47;;
5819;SDS011;2936;47.348;9.640;2022-08-19T15:01:02;4.40;;;3.43;;
5819;SDS011;2936;47.348;9.640;2022-08-19T15:03:30;4.73;;;4.30;;
5819;SDS011;2936;47.348;9.640;2022-08-19T15:05:59;4.60;;;4.30;;
5819;SDS011;2936;47.348;9.640;2022-08-19T15:08:27;5.93;;;4.87;;